sensor_id;sensor_type;location;lat;lon;timestamp;P1;durP1;ratioP1;P2;durP2;ratioP2
77955;SDS011;67152;36.266;32.294;2023-05-23T00:00:06;24.70;;;8.30;;
77955;SDS011;67152;36.266;32.294;2023-05-23T00:02:33;26.42;;;7.60;;
77955;SDS011;67152;36.266;32.294;2023-05-23T00:04:59;29.67;;;7.80;;
77955;SDS011;67152;36.266;32.294;2023-05-23T00:07:28;28.38;;;8.63;;
77955;SDS011;67152;36.266;32.294;2023-05-23T00:09:54;37.80;;;8.43;;
77955;SDS011;67152;36.266;32.294;2023-05-23T00:12:21;33.55;;;9.75;;
77955;SDS011;67152;36.266;32.294;2023-05-23T00:14:47;26.87;;;8.43;;
77955;SDS011;67152;36.266;32.294;2023-05-23T00:17:15;34.97;;;8.63;;
77955;SDS011;67152;36.266;32.294;2023-05-23T00:19:42;29.60;;;8.40;;
77955;SDS011;67152;36.266;32.294;2023-05-23T00:22:10;25.48;;;8.98;;
77955;SDS011;67152;36.266;32.294;2023-05-23T00:24:37;32.42;;;8.23;;
77955;SDS011;67152;36.266;32.294;2023-05-23T00:27:04;36.77;;;8.63;;
77955;SDS011;67152;36.266;32.294;2023-05-23T00:29:30;22.98;;;8.45;;
77955;SDS011;67152;36.266;32.294;2023-05-23T00:31:57;27.13;;;8.18;;
77955;SDS011;67152;36.266;32.294;2023-05-23T00:34:23;34.25;;;8.77;;
77955;SDS011;67152;36.266;32.294;2023-05-23T00:36:50;30.50;;;8.60;;
77955;SDS011;67152;36.266;32.294;2023-05-23T00:39:16;32.03;;;8.60;;
77955;SDS011;67152;36.266;32.294;2023-05-23T00:41:47;28.27;;;8.85;;
77955;SDS011;67152;36.266;32.294;2023-05-23T00:44:13;31.73;;;8.75;;
77955;SDS011;67152;36.266;32.294;2023-05-23T00:46:40;32.23;;;8.67;;
77955;SDS011;67152;36.266;32.294;2023-05-23T00:49:09;28.90;;;8.82;;
77955;SDS011;67152;36.266;32.294;2023-05-23T00:51:35;32.07;;;8.37;;
77955;SDS011;67152;36.266;32.294;2023-05-23T00:54:03;30.27;;;9.63;;
77955;SDS011;67152;36.266;32.294;2023-05-23T00:56:30;32.08;;;9.40;;
77955;SDS011;67152;36.266;32.294;2023-05-23T00:58:57;33.77;;;9.20;;
77955;SDS011;67152;36.266;32.294;2023-05-23T01:01:25;32.65;;;8.98;;
77955;SDS011;67152;36.266;32.294;2023-05-23T01:03:52;36.27;;;9.10;;
77955;SDS011;67152;36.266;32.294;2023-05-23T01:06:18;29.92;;;9.30;;
77955;SDS011;67152;36.266;32.294;2023-05-23T01:08:45;37.05;;;9.95;;
77955;SDS011;67152;36.266;32.294;2023-05-23T01:11:39;37.17;;;10.15;;
77955;SDS011;67152;36.266;32.294;2023-05-23T01:14:27;36.38;;;9.40;;
77955;SDS011;67152;36.266;32.294;2023-05-23T01:17:06;32.28;;;9.48;;
77955;SDS011;67152;36.266;32.294;2023-05-23T01:19:48;37.58;;;9.88;;
77955;SDS011;67152;36.266;32.294;2023-05-23T01:25:27;32.20;;;9.07;;
77955;SDS011;67152;36.266;32.294;2023-05-23T01:28:18;29.42;;;9.80;;
77955;SDS011;67152;36.266;32.294;2023-05-23T01:30:46;38.72;;;9.55;;
77955;SDS011;67152;36.266;32.294;2023-05-23T01:33:14;38.70;;;9.90;;
77955;SDS011;67152;36.266;32.294;2023-05-23T01:35:43;42.45;;;10.98;;
77955;SDS011;67152;36.266;32.294;2023-05-23T01:38:10;35.85;;;10.45;;
77955;SDS011;67152;36.266;32.294;2023-05-23T01:40:36;43.07;;;10.00;;
77955;SDS011;67152;36.266;32.294;2023-05-23T01:43:03;45.40;;;10.65;;
77955;SDS011;67152;36.266;32.294;2023-05-23T01:45:29;39.15;;;10.57;;
77955;SDS011;67152;36.266;32.294;2023-05-23T01:47:56;35.97;;;10.50;;
77955;SDS011;67152;36.266;32.294;2023-05-23T01:50:23;43.38;;;10.35;;
77955;SDS011;67152;36.266;32.294;2023-05-23T01:52:50;35.28;;;9.63;;
77955;SDS011;67152;36.266;32.294;2023-05-23T01:55:18;32.72;;;8.85;;
77955;SDS011;67152;36.266;32.294;2023-05-23T01:57:50;37.88;;;9.35;;
77955;SDS011;67152;36.266;32.294;2023-05-23T02:00:17;31.05;;;9.88;;
77955;SDS011;67152;36.266;32.294;2023-05-23T02:02:43;27.90;;;9.67;;
77955;SDS011;67152;36.266;32.294;2023-05-23T02:05:29;29.05;;;8.57;;
77955;SDS011;67152;36.266;32.294;2023-05-23T02:07:55;39.23;;;10.07;;
77955;SDS011;67152;36.266;32.294;2023-05-23T02:10:22;37.07;;;9.23;;
77955;SDS011;67152;36.266;32.294;2023-05-23T02:12:48;28.43;;;9.30;;
77955;SDS011;67152;36.266;32.294;2023-05-23T02:15:15;35.70;;;10.05;;
77955;SDS011;67152;36.266;32.294;2023-05-23T02:17:42;35.60;;;10.63;;
77955;SDS011;67152;36.266;32.294;2023-05-23T02:20:09;38.42;;;9.02;;
77955;SDS011;67152;36.266;32.294;2023-05-23T02:22:35;35.85;;;9.88;;
77955;SDS011;67152;36.266;32.294;2023-05-23T02:25:02;44.63;;;10.70;;
77955;SDS011;67152;36.266;32.294;2023-05-23T02:27:29;35.92;;;10.07;;
77955;SDS011;67152;36.266;32.294;2023-05-23T02:29:56;39.60;;;8.55;;
77955;SDS011;67152;36.266;32.294;2023-05-23T02:32:24;47.05;;;10.02;;
77955;SDS011;67152;36.266;32.294;2023-05-23T02:34:50;31.70;;;10.05;;
77955;SDS011;67152;36.266;32.294;2023-05-23T02:37:17;26.13;;;9.73;;
77955;SDS011;67152;36.266;32.294;2023-05-23T02:39:43;38.50;;;9.30;;
77955;SDS011;67152;36.266;32.294;2023-05-23T02:42:10;30.27;;;8.47;;
77955;SDS011;67152;36.266;32.294;2023-05-23T02:44:36;38.42;;;9.60;;
77955;SDS011;67152;36.266;32.294;2023-05-23T02:47:03;32.33;;;9.32;;
77955;SDS011;67152;36.266;32.294;2023-05-23T02:49:30;33.15;;;9.85;;
77955;SDS011;67152;36.266;32.294;2023-05-23T02:51:56;33.17;;;9.57;;
77955;SDS011;67152;36.266;32.294;2023-05-23T02:54:23;35.70;;;9.82;;
77955;SDS011;67152;36.266;32.294;2023-05-23T02:56:49;28.85;;;9.25;;
77955;SDS011;67152;36.266;32.294;2023-05-23T03:01:43;28.08;;;8.50;;
77955;SDS011;67152;36.266;32.294;2023-05-23T03:04:10;29.70;;;9.40;;
77955;SDS011;67152;36.266;32.294;2023-05-23T03:06:38;37.90;;;8.02;;
77955;SDS011;67152;36.266;32.294;2023-05-23T03:09:07;29.52;;;7.75;;
77955;SDS011;67152;36.266;32.294;2023-05-23T03:11:35;32.30;;;8.25;;
77955;SDS011;67152;36.266;32.294;2023-05-23T03:16:28;29.48;;;8.23;;
77955;SDS011;67152;36.266;32.294;2023-05-23T03:18:54;32.00;;;9.10;;
77955;SDS011;67152;36.266;32.294;2023-05-23T03:21:21;35.10;;;9.37;;
77955;SDS011;67152;36.266;32.294;2023-05-23T03:23:47;32.93;;;8.80;;
77955;SDS011;67152;36.266;32.294;2023-05-23T03:26:15;31.33;;;8.50;;
77955;SDS011;67152;36.266;32.294;2023-05-23T03:28:42;33.47;;;9.15;;
77955;SDS011;67152;36.266;32.294;2023-05-23T03:31:08;36.80;;;9.40;;
77955;SDS011;67152;36.266;32.294;2023-05-23T03:33:34;41.05;;;10.70;;
77955;SDS011;67152;36.266;32.294;2023-05-23T03:36:01;23.92;;;8.75;;
77955;SDS011;67152;36.266;32.294;2023-05-23T03:38:27;45.63;;;9.27;;
77955;SDS011;67152;36.266;32.294;2023-05-23T03:40:54;30.25;;;8.50;;
77955;SDS011;67152;36.266;32.294;2023-05-23T03:43:20;31.47;;;8.90;;
77955;SDS011;67152;36.266;32.294;2023-05-23T03:45:47;40.33;;;10.70;;
77955;SDS011;67152;36.266;32.294;2023-05-23T03:48:13;35.30;;;10.20;;
77955;SDS011;67152;36.266;32.294;2023-05-23T03:50:40;30.48;;;9.57;;
77955;SDS011;67152;36.266;32.294;2023-05-23T03:53:07;33.70;;;9.32;;
77955;SDS011;67152;36.266;32.294;2023-05-23T03:55:34;32.75;;;9.98;;
77955;SDS011;67152;36.266;32.294;2023-05-23T03:58:00;33.78;;;10.45;;
77955;SDS011;67152;36.266;32.294;2023-05-23T04:00:27;31.77;;;8.93;;
77955;SDS011;67152;36.266;32.294;2023-05-23T04:02:53;33.53;;;9.38;;
77955;SDS011;67152;36.266;32.294;2023-05-23T04:05:20;31.90;;;9.02;;
77955;SDS011;67152;36.266;32.294;2023-05-23T04:07:47;33.00;;;9.10;;
77955;SDS011;67152;36.266;32.294;2023-05-23T04:10:13;33.50;;;9.32;;
77955;SDS011;67152;36.266;32.294;2023-05-23T04:12:40;42.90;;;9.37;;
77955;SDS011;67152;36.266;32.294;2023-05-23T04:15:07;33.80;;;9.80;;
77955;SDS011;67152;36.266;32.294;2023-05-23T04:20:05;39.95;;;10.55;;
77955;SDS011;67152;36.266;32.294;2023-05-23T04:22:34;31.05;;;9.95;;
77955;SDS011;67152;36.266;32.294;2023-05-23T04:25:00;34.37;;;10.70;;
77955;SDS011;67152;36.266;32.294;2023-05-23T04:27:27;44.53;;;10.75;;
77955;SDS011;67152;36.266;32.294;2023-05-23T04:29:53;40.03;;;11.18;;
77955;SDS011;67152;36.266;32.294;2023-05-23T04:32:21;41.00;;;10.98;;
77955;SDS011;67152;36.266;32.294;2023-05-23T04:34:47;31.60;;;10.77;;
77955;SDS011;67152;36.266;32.294;2023-05-23T04:37:14;38.80;;;12.73;;
77955;SDS011;67152;36.266;32.294;2023-05-23T04:42:08;37.50;;;13.60;;
77955;SDS011;67152;36.266;32.294;2023-05-23T04:44:34;40.13;;;13.75;;
77955;SDS011;67152;36.266;32.294;2023-05-23T04:47:02;46.88;;;13.38;;
77955;SDS011;67152;36.266;32.294;2023-05-23T04:49:28;54.55;;;12.70;;
77955;SDS011;67152;36.266;32.294;2023-05-23T04:51:55;43.10;;;14.10;;
77955;SDS011;67152;36.266;32.294;2023-05-23T04:54:21;41.53;;;12.80;;
77955;SDS011;67152;36.266;32.294;2023-05-23T04:56:48;52.07;;;16.13;;
77955;SDS011;67152;36.266;32.294;2023-05-23T04:59:15;45.75;;;14.45;;
77955;SDS011;67152;36.266;32.294;2023-05-23T05:01:41;49.07;;;16.67;;
77955;SDS011;67152;36.266;32.294;2023-05-23T05:04:08;45.08;;;12.95;;
77955;SDS011;67152;36.266;32.294;2023-05-23T05:06:35;40.30;;;11.52;;
77955;SDS011;67152;36.266;32.294;2023-05-23T05:09:02;43.42;;;12.35;;
77955;SDS011;67152;36.266;32.294;2023-05-23T05:11:29;45.40;;;12.98;;
77955;SDS011;67152;36.266;32.294;2023-05-23T05:13:56;49.00;;;12.85;;
77955;SDS011;67152;36.266;32.294;2023-05-23T05:16:22;53.13;;;13.32;;
77955;SDS011;67152;36.266;32.294;2023-05-23T05:18:49;38.40;;;11.60;;
77955;SDS011;67152;36.266;32.294;2023-05-23T05:21:16;38.63;;;11.15;;
77955;SDS011;67152;36.266;32.294;2023-05-23T05:23:42;43.00;;;10.57;;
77955;SDS011;67152;36.266;32.294;2023-05-23T05:26:09;42.70;;;12.27;;
77955;SDS011;67152;36.266;32.294;2023-05-23T05:28:35;44.75;;;11.93;;
77955;SDS011;67152;36.266;32.294;2023-05-23T05:31:02;38.00;;;10.63;;
77955;SDS011;67152;36.266;32.294;2023-05-23T05:33:29;31.85;;;10.38;;
77955;SDS011;67152;36.266;32.294;2023-05-23T05:36:01;34.35;;;10.93;;
77955;SDS011;67152;36.266;32.294;2023-05-23T05:38:28;40.70;;;10.57;;
77955;SDS011;67152;36.266;32.294;2023-05-23T05:40:55;51.35;;;11.75;;
77955;SDS011;67152;36.266;32.294;2023-05-23T05:43:22;41.88;;;11.63;;
77955;SDS011;67152;36.266;32.294;2023-05-23T05:45:48;40.47;;;10.82;;
77955;SDS011;67152;36.266;32.294;2023-05-23T05:48:15;30.27;;;9.93;;
77955;SDS011;67152;36.266;32.294;2023-05-23T05:53:10;46.25;;;11.20;;
77955;SDS011;67152;36.266;32.294;2023-05-23T05:55:38;34.85;;;10.23;;
77955;SDS011;67152;36.266;32.294;2023-05-23T05:58:05;40.38;;;11.13;;
77955;SDS011;67152;36.266;32.294;2023-05-23T06:00:33;43.67;;;11.05;;
77955;SDS011;67152;36.266;32.294;2023-05-23T06:03:07;48.97;;;11.55;;
77955;SDS011;67152;36.266;32.294;2023-05-23T06:05:35;37.33;;;10.85;;
77955;SDS011;67152;36.266;32.294;2023-05-23T06:08:02;35.17;;;9.77;;
77955;SDS011;67152;36.266;32.294;2023-05-23T06:10:29;37.15;;;10.13;;
77955;SDS011;67152;36.266;32.294;2023-05-23T06:12:56;39.20;;;10.43;;
77955;SDS011;67152;36.266;32.294;2023-05-23T06:15:23;45.47;;;10.60;;
77955;SDS011;67152;36.266;32.294;2023-05-23T06:17:51;43.65;;;10.70;;
77955;SDS011;67152;36.266;32.294;2023-05-23T06:20:18;36.08;;;10.48;;
77955;SDS011;67152;36.266;32.294;2023-05-23T06:22:45;47.40;;;10.75;;
77955;SDS011;67152;36.266;32.294;2023-05-23T06:25:11;34.95;;;9.93;;
77955;SDS011;67152;36.266;32.294;2023-05-23T06:30:04;38.57;;;10.73;;
77955;SDS011;67152;36.266;32.294;2023-05-23T06:32:32;39.47;;;11.48;;
77955;SDS011;67152;36.266;32.294;2023-05-23T06:34:58;36.40;;;9.88;;
77955;SDS011;67152;36.266;32.294;2023-05-23T06:37:25;35.88;;;10.27;;
77955;SDS011;67152;36.266;32.294;2023-05-23T06:39:52;38.58;;;10.38;;
77955;SDS011;67152;36.266;32.294;2023-05-23T06:42:18;33.20;;;10.82;;
77955;SDS011;67152;36.266;32.294;2023-05-23T06:44:45;34.65;;;9.75;;
77955;SDS011;67152;36.266;32.294;2023-05-23T06:49:38;41.25;;;9.90;;
77955;SDS011;67152;36.266;32.294;2023-05-23T06:52:05;44.10;;;10.55;;
77955;SDS011;67152;36.266;32.294;2023-05-23T06:54:31;33.38;;;10.18;;
77955;SDS011;67152;36.266;32.294;2023-05-23T06:56:58;44.13;;;11.77;;
77955;SDS011;67152;36.266;32.294;2023-05-23T07:01:51;35.47;;;9.80;;
77955;SDS011;67152;36.266;32.294;2023-05-23T07:04:17;39.38;;;10.88;;
77955;SDS011;67152;36.266;32.294;2023-05-23T07:06:44;32.33;;;9.65;;
77955;SDS011;67152;36.266;32.294;2023-05-23T07:11:38;37.70;;;9.45;;
77955;SDS011;67152;36.266;32.294;2023-05-23T07:14:05;34.97;;;10.90;;
77955;SDS011;67152;36.266;32.294;2023-05-23T07:16:32;35.55;;;10.07;;
77955;SDS011;67152;36.266;32.294;2023-05-23T07:18:59;32.63;;;9.15;;
77955;SDS011;67152;36.266;32.294;2023-05-23T07:21:27;29.52;;;10.10;;
77955;SDS011;67152;36.266;32.294;2023-05-23T07:23:54;34.75;;;8.93;;
77955;SDS011;67152;36.266;32.294;2023-05-23T07:28:47;39.15;;;10.75;;
77955;SDS011;67152;36.266;32.294;2023-05-23T07:31:13;36.65;;;10.55;;
77955;SDS011;67152;36.266;32.294;2023-05-23T07:33:40;34.00;;;9.68;;
77955;SDS011;67152;36.266;32.294;2023-05-23T07:36:07;36.25;;;10.18;;
77955;SDS011;67152;36.266;32.294;2023-05-23T07:38:33;36.30;;;9.35;;
77955;SDS011;67152;36.266;32.294;2023-05-23T07:41:00;30.75;;;9.50;;
77955;SDS011;67152;36.266;32.294;2023-05-23T07:43:26;37.38;;;9.70;;
77955;SDS011;67152;36.266;32.294;2023-05-23T07:45:53;33.67;;;9.73;;
77955;SDS011;67152;36.266;32.294;2023-05-23T07:48:20;33.25;;;9.55;;
77955;SDS011;67152;36.266;32.294;2023-05-23T07:50:46;41.53;;;10.18;;
77955;SDS011;67152;36.266;32.294;2023-05-23T07:55:39;30.98;;;10.07;;
77955;SDS011;67152;36.266;32.294;2023-05-23T08:00:34;37.70;;;10.82;;
77955;SDS011;67152;36.266;32.294;2023-05-23T08:03:04;36.92;;;10.48;;
77955;SDS011;67152;36.266;32.294;2023-05-23T08:05:31;36.90;;;9.68;;
77955;SDS011;67152;36.266;32.294;2023-05-23T08:07:57;49.75;;;11.27;;
77955;SDS011;67152;36.266;32.294;2023-05-23T08:10:27;41.05;;;10.05;;
77955;SDS011;67152;36.266;32.294;2023-05-23T08:12:56;39.63;;;11.27;;
77955;SDS011;67152;36.266;32.294;2023-05-23T08:15:25;32.90;;;10.00;;
77955;SDS011;67152;36.266;32.294;2023-05-23T08:17:53;40.65;;;10.40;;
77955;SDS011;67152;36.266;32.294;2023-05-23T08:20:21;39.78;;;10.73;;
77955;SDS011;67152;36.266;32.294;2023-05-23T08:22:58;40.10;;;10.88;;
77955;SDS011;67152;36.266;32.294;2023-05-23T08:25:26;33.75;;;10.13;;
77955;SDS011;67152;36.266;32.294;2023-05-23T08:27:55;39.08;;;10.02;;
77955;SDS011;67152;36.266;32.294;2023-05-23T08:30:26;32.47;;;8.73;;
77955;SDS011;67152;36.266;32.294;2023-05-23T08:32:53;41.22;;;10.75;;
77955;SDS011;67152;36.266;32.294;2023-05-23T08:35:21;33.60;;;10.38;;
77955;SDS011;67152;36.266;32.294;2023-05-23T08:37:49;31.10;;;10.27;;
77955;SDS011;67152;36.266;32.294;2023-05-23T08:40:20;31.92;;;10.05;;
77955;SDS011;67152;36.266;32.294;2023-05-23T08:42:47;32.65;;;9.98;;
77955;SDS011;67152;36.266;32.294;2023-05-23T08:45:15;31.60;;;9.75;;
77955;SDS011;67152;36.266;32.294;2023-05-23T08:47:43;32.88;;;9.35;;
77955;SDS011;67152;36.266;32.294;2023-05-23T08:50:14;36.22;;;10.48;;
77955;SDS011;67152;36.266;32.294;2023-05-23T08:52:42;31.83;;;9.45;;
77955;SDS011;67152;36.266;32.294;2023-05-23T08:55:12;42.75;;;11.25;;
77955;SDS011;67152;36.266;32.294;2023-05-23T08:57:39;37.15;;;10.00;;
77955;SDS011;67152;36.266;32.294;2023-05-23T09:00:09;33.50;;;10.13;;
77955;SDS011;67152;36.266;32.294;2023-05-23T09:05:10;31.17;;;9.82;;
77955;SDS011;67152;36.266;32.294;2023-05-23T09:07:37;33.53;;;9.10;;
77955;SDS011;67152;36.266;32.294;2023-05-23T09:10:05;34.83;;;10.20;;
77955;SDS011;67152;36.266;32.294;2023-05-23T09:12:36;34.15;;;10.13;;
77955;SDS011;67152;36.266;32.294;2023-05-23T09:15:04;30.50;;;9.70;;
77955;SDS011;67152;36.266;32.294;2023-05-23T09:17:34;40.63;;;10.43;;
77955;SDS011;67152;36.266;32.294;2023-05-23T09:20:14;27.95;;;9.50;;
77955;SDS011;67152;36.266;32.294;2023-05-23T09:23:04;32.25;;;9.55;;
77955;SDS011;67152;36.266;32.294;2023-05-23T09:28:15;28.92;;;10.10;;
77955;SDS011;67152;36.266;32.294;2023-05-23T09:30:46;36.35;;;10.98;;
77955;SDS011;67152;36.266;32.294;2023-05-23T09:33:13;33.40;;;10.70;;
77955;SDS011;67152;36.266;32.294;2023-05-23T09:35:43;30.70;;;10.70;;
77955;SDS011;67152;36.266;32.294;2023-05-23T09:38:11;35.83;;;11.57;;
77955;SDS011;67152;36.266;32.294;2023-05-23T09:40:43;33.65;;;11.20;;
77955;SDS011;67152;36.266;32.294;2023-05-23T09:43:10;43.75;;;13.80;;
77955;SDS011;67152;36.266;32.294;2023-05-23T09:45:37;34.53;;;12.38;;
77955;SDS011;67152;36.266;32.294;2023-05-23T09:48:03;30.88;;;10.73;;
77955;SDS011;67152;36.266;32.294;2023-05-23T09:50:31;48.58;;;16.33;;
77955;SDS011;67152;36.266;32.294;2023-05-23T09:52:59;28.83;;;9.95;;
77955;SDS011;67152;36.266;32.294;2023-05-23T09:55:30;31.73;;;10.57;;
77955;SDS011;67152;36.266;32.294;2023-05-23T09:58:10;27.40;;;9.77;;
77955;SDS011;67152;36.266;32.294;2023-05-23T10:00:40;37.40;;;10.30;;
77955;SDS011;67152;36.266;32.294;2023-05-23T10:03:10;33.00;;;10.40;;
77955;SDS011;67152;36.266;32.294;2023-05-23T10:05:48;35.20;;;11.13;;
77955;SDS011;67152;36.266;32.294;2023-05-23T10:08:20;37.13;;;9.70;;
77955;SDS011;67152;36.266;32.294;2023-05-23T10:13:43;27.40;;;9.27;;
77955;SDS011;67152;36.266;32.294;2023-05-23T10:16:12;30.40;;;10.18;;
77955;SDS011;67152;36.266;32.294;2023-05-23T10:18:44;36.53;;;10.20;;
77955;SDS011;67152;36.266;32.294;2023-05-23T10:21:15;28.25;;;9.80;;
77955;SDS011;67152;36.266;32.294;2023-05-23T10:23:45;27.02;;;9.00;;
77955;SDS011;67152;36.266;32.294;2023-05-23T10:26:13;31.17;;;9.45;;
77955;SDS011;67152;36.266;32.294;2023-05-23T10:28:40;33.65;;;10.52;;
77955;SDS011;67152;36.266;32.294;2023-05-23T10:33:34;26.70;;;10.25;;
77955;SDS011;67152;36.266;32.294;2023-05-23T10:36:09;30.27;;;9.90;;
77955;SDS011;67152;36.266;32.294;2023-05-23T10:39:05;32.83;;;10.20;;
77955;SDS011;67152;36.266;32.294;2023-05-23T10:41:47;24.60;;;9.27;;
77955;SDS011;67152;36.266;32.294;2023-05-23T10:44:24;32.35;;;10.27;;
77955;SDS011;67152;36.266;32.294;2023-05-23T10:46:56;24.80;;;9.47;;
77955;SDS011;67152;36.266;32.294;2023-05-23T10:52:16;21.50;;;9.60;;
77955;SDS011;67152;36.266;32.294;2023-05-23T10:57:14;23.33;;;9.65;;
77955;SDS011;67152;36.266;32.294;2023-05-23T10:59:43;25.77;;;9.68;;
77955;SDS011;67152;36.266;32.294;2023-05-23T11:02:14;22.73;;;9.10;;
77955;SDS011;67152;36.266;32.294;2023-05-23T11:05:20;26.48;;;9.50;;
77955;SDS011;67152;36.266;32.294;2023-05-23T11:08:06;25.00;;;9.65;;
77955;SDS011;67152;36.266;32.294;2023-05-23T11:13:18;29.02;;;9.20;;
77955;SDS011;67152;36.266;32.294;2023-05-23T11:18:50;29.15;;;9.00;;
77955;SDS011;67152;36.266;32.294;2023-05-23T11:21:18;30.40;;;9.82;;
77955;SDS011;67152;36.266;32.294;2023-05-23T11:23:45;24.45;;;9.20;;
77955;SDS011;67152;36.266;32.294;2023-05-23T11:28:58;18.63;;;9.20;;
77955;SDS011;67152;36.266;32.294;2023-05-23T11:31:24;24.58;;;8.82;;
77955;SDS011;67152;36.266;32.294;2023-05-23T11:36:19;21.35;;;9.13;;
77955;SDS011;67152;36.266;32.294;2023-05-23T11:38:47;19.02;;;9.35;;
77955;SDS011;67152;36.266;32.294;2023-05-23T11:41:15;27.63;;;10.15;;
77955;SDS011;67152;36.266;32.294;2023-05-23T11:43:51;21.75;;;9.55;;
77955;SDS011;67152;36.266;32.294;2023-05-23T11:46:17;20.20;;;8.52;;
77955;SDS011;67152;36.266;32.294;2023-05-23T11:51:31;20.02;;;9.30;;
77955;SDS011;67152;36.266;32.294;2023-05-23T11:53:59;23.33;;;9.52;;
77955;SDS011;67152;36.266;32.294;2023-05-23T11:56:26;23.38;;;9.35;;
77955;SDS011;67152;36.266;32.294;2023-05-23T11:58:53;27.20;;;9.25;;
77955;SDS011;67152;36.266;32.294;2023-05-23T12:01:27;21.90;;;9.18;;
77955;SDS011;67152;36.266;32.294;2023-05-23T12:03:58;24.90;;;9.43;;
77955;SDS011;67152;36.266;32.294;2023-05-23T12:06:25;22.95;;;8.68;;
77955;SDS011;67152;36.266;32.294;2023-05-23T12:08:52;18.88;;;9.15;;
77955;SDS011;67152;36.266;32.294;2023-05-23T12:11:19;19.67;;;8.52;;
77955;SDS011;67152;36.266;32.294;2023-05-23T12:13:45;20.00;;;8.25;;
77955;SDS011;67152;36.266;32.294;2023-05-23T12:16:12;22.23;;;8.45;;
77955;SDS011;67152;36.266;32.294;2023-05-23T12:18:42;22.60;;;9.23;;
77955;SDS011;67152;36.266;32.294;2023-05-23T12:21:09;22.50;;;9.38;;
77955;SDS011;67152;36.266;32.294;2023-05-23T12:23:35;19.48;;;8.70;;
77955;SDS011;67152;36.266;32.294;2023-05-23T12:26:03;18.13;;;7.97;;
77955;SDS011;67152;36.266;32.294;2023-05-23T12:31:09;30.10;;;9.85;;
77955;SDS011;67152;36.266;32.294;2023-05-23T12:33:56;22.17;;;11.35;;
77955;SDS011;67152;36.266;32.294;2023-05-23T12:36:23;29.42;;;12.52;;
77955;SDS011;67152;36.266;32.294;2023-05-23T12:38:51;39.40;;;11.63;;
77955;SDS011;67152;36.266;32.294;2023-05-23T12:41:18;26.98;;;11.27;;
77955;SDS011;67152;36.266;32.294;2023-05-23T12:43:49;26.15;;;11.27;;
77955;SDS011;67152;36.266;32.294;2023-05-23T12:46:19;25.23;;;9.65;;
77955;SDS011;67152;36.266;32.294;2023-05-23T12:48:46;25.27;;;9.43;;
77955;SDS011;67152;36.266;32.294;2023-05-23T12:51:13;26.45;;;9.55;;
77955;SDS011;67152;36.266;32.294;2023-05-23T12:53:40;28.80;;;10.07;;
77955;SDS011;67152;36.266;32.294;2023-05-23T12:56:07;26.75;;;8.75;;
77955;SDS011;67152;36.266;32.294;2023-05-23T13:01:00;23.52;;;8.73;;
77955;SDS011;67152;36.266;32.294;2023-05-23T13:03:27;21.95;;;9.18;;
77955;SDS011;67152;36.266;32.294;2023-05-23T13:05:58;19.70;;;8.60;;
77955;SDS011;67152;36.266;32.294;2023-05-23T13:08:27;17.25;;;8.73;;
77955;SDS011;67152;36.266;32.294;2023-05-23T13:10:54;24.02;;;9.07;;
77955;SDS011;67152;36.266;32.294;2023-05-23T13:13:21;23.17;;;9.38;;
77955;SDS011;67152;36.266;32.294;2023-05-23T13:18:15;25.15;;;8.95;;
77955;SDS011;67152;36.266;32.294;2023-05-23T13:20:42;23.88;;;7.78;;
77955;SDS011;67152;36.266;32.294;2023-05-23T13:23:09;27.92;;;10.60;;
77955;SDS011;67152;36.266;32.294;2023-05-23T13:25:36;20.02;;;8.43;;
77955;SDS011;67152;36.266;32.294;2023-05-23T13:30:31;29.15;;;9.68;;
77955;SDS011;67152;36.266;32.294;2023-05-23T13:33:16;22.55;;;8.25;;
77955;SDS011;67152;36.266;32.294;2023-05-23T13:35:45;21.85;;;7.80;;
77955;SDS011;67152;36.266;32.294;2023-05-23T13:38:14;26.10;;;8.75;;
77955;SDS011;67152;36.266;32.294;2023-05-23T13:43:07;26.08;;;8.45;;
77955;SDS011;67152;36.266;32.294;2023-05-23T13:45:52;29.77;;;9.45;;
77955;SDS011;67152;36.266;32.294;2023-05-23T13:48:18;21.83;;;8.48;;
77955;SDS011;67152;36.266;32.294;2023-05-23T13:53:12;25.48;;;9.10;;
77955;SDS011;67152;36.266;32.294;2023-05-23T13:55:42;26.63;;;8.10;;
77955;SDS011;67152;36.266;32.294;2023-05-23T13:58:10;31.20;;;8.43;;
77955;SDS011;67152;36.266;32.294;2023-05-23T14:03:04;22.88;;;7.68;;
77955;SDS011;67152;36.266;32.294;2023-05-23T14:05:31;24.92;;;7.53;;
77955;SDS011;67152;36.266;32.294;2023-05-23T14:07:58;21.95;;;8.60;;
77955;SDS011;67152;36.266;32.294;2023-05-23T14:10:25;24.55;;;7.90;;
77955;SDS011;67152;36.266;32.294;2023-05-23T14:12:51;20.50;;;9.32;;
77955;SDS011;67152;36.266;32.294;2023-05-23T14:17:44;24.40;;;8.70;;
77955;SDS011;67152;36.266;32.294;2023-05-23T14:20:11;29.17;;;9.85;;
77955;SDS011;67152;36.266;32.294;2023-05-23T14:22:38;25.48;;;9.18;;
77955;SDS011;67152;36.266;32.294;2023-05-23T14:25:05;35.67;;;10.73;;
77955;SDS011;67152;36.266;32.294;2023-05-23T14:30:00;31.60;;;9.40;;
77955;SDS011;67152;36.266;32.294;2023-05-23T14:32:27;33.42;;;8.32;;
77955;SDS011;67152;36.266;32.294;2023-05-23T14:34:55;24.20;;;7.00;;
77955;SDS011;67152;36.266;32.294;2023-05-23T14:37:21;23.38;;;7.07;;
77955;SDS011;67152;36.266;32.294;2023-05-23T14:39:49;21.50;;;7.90;;
77955;SDS011;67152;36.266;32.294;2023-05-23T14:42:16;24.50;;;8.20;;
77955;SDS011;67152;36.266;32.294;2023-05-23T14:44:43;23.48;;;8.73;;
77955;SDS011;67152;36.266;32.294;2023-05-23T14:47:10;25.67;;;9.57;;
77955;SDS011;67152;36.266;32.294;2023-05-23T14:49:36;25.83;;;8.77;;
77955;SDS011;67152;36.266;32.294;2023-05-23T14:52:03;27.52;;;8.35;;
77955;SDS011;67152;36.266;32.294;2023-05-23T14:54:30;30.00;;;9.00;;
77955;SDS011;67152;36.266;32.294;2023-05-23T14:56:57;20.45;;;7.75;;
77955;SDS011;67152;36.266;32.294;2023-05-23T14:59:24;26.00;;;7.60;;
77955;SDS011;67152;36.266;32.294;2023-05-23T15:01:51;29.70;;;7.72;;
77955;SDS011;67152;36.266;32.294;2023-05-23T15:04:17;25.20;;;7.65;;
77955;SDS011;67152;36.266;32.294;2023-05-23T15:06:45;28.10;;;7.45;;
77955;SDS011;67152;36.266;32.294;2023-05-23T15:09:12;23.05;;;7.13;;
77955;SDS011;67152;36.266;32.294;2023-05-23T15:11:58;26.85;;;7.28;;
77955;SDS011;67152;36.266;32.294;2023-05-23T15:17:11;26.42;;;7.78;;
77955;SDS011;67152;36.266;32.294;2023-05-23T15:22:07;25.67;;;7.20;;
77955;SDS011;67152;36.266;32.294;2023-05-23T15:24:33;35.83;;;7.60;;
77955;SDS011;67152;36.266;32.294;2023-05-23T15:27:03;28.20;;;7.78;;
77955;SDS011;67152;36.266;32.294;2023-05-23T15:29:30;31.73;;;7.25;;
77955;SDS011;67152;36.266;32.294;2023-05-23T15:31:58;25.45;;;7.75;;
77955;SDS011;67152;36.266;32.294;2023-05-23T15:34:25;31.95;;;8.40;;
77955;SDS011;67152;36.266;32.294;2023-05-23T15:36:52;35.10;;;8.30;;
77955;SDS011;67152;36.266;32.294;2023-05-23T15:39:18;26.05;;;6.90;;
77955;SDS011;67152;36.266;32.294;2023-05-23T15:41:45;38.10;;;8.20;;
77955;SDS011;67152;36.266;32.294;2023-05-23T15:44:12;28.60;;;8.40;;
77955;SDS011;67152;36.266;32.294;2023-05-23T15:46:42;35.90;;;7.95;;
77955;SDS011;67152;36.266;32.294;2023-05-23T15:49:09;38.65;;;8.07;;
77955;SDS011;67152;36.266;32.294;2023-05-23T15:51:35;34.45;;;7.85;;